sensor_id;sensor_type;location;lat;lon;timestamp;P1;durP1;ratioP1;P2;durP2;ratioP2
18867;SDS011;9563;49.240;9.088;2023-05-10T05:01:59;5.40;;;4.90;;
18867;SDS011;9563;49.240;9.088;2023-05-10T05:04:26;6.68;;;5.18;;
18867;SDS011;9563;49.240;9.088;2023-05-10T05:06:52;7.18;;;5.82;;
18867;SDS011;9563;49.240;9.088;2023-05-10T05:09:19;7.88;;;5.43;;
18867;SDS011;9563;49.240;9.088;2023-05-10T05:11:46;7.22;;;5.75;;
18867;SDS011;9563;49.240;9.088;2023-05-10T05:14:13;9.05;;;5.68;;
18867;SDS011;9563;49.240;9.088;2023-05-10T05:16:40;7.93;;;6.68;;
18867;SDS011;9563;49.240;9.088;2023-05-10T05:19:08;7.75;;;6.60;;
18867;SDS011;9563;49.240;9.088;2023-05-10T05:21:35;9.88;;;6.50;;
18867;SDS011;9563;49.240;9.088;2023-05-10T05:24:02;8.05;;;6.20;;
18867;SDS011;9563;49.240;9.088;2023-05-10T05:26:29;11.75;;;7.40;;
18867;SDS011;9563;49.240;9.088;2023-05-10T05:28:56;9.18;;;6.90;;
18867;SDS011;9563;49.240;9.088;2023-05-10T05:31:22;11.32;;;6.32;;
18867;SDS011;9563;49.240;9.088;2023-05-10T05:33:49;7.30;;;6.15;;
18867;SDS011;9563;49.240;9.088;2023-05-10T05:36:18;9.13;;;6.10;;
18867;SDS011;9563;49.240;9.088;2023-05-10T05:38:44;8.77;;;6.10;;
18867;SDS011;9563;49.240;9.088;2023-05-10T05:41:11;8.13;;;6.38;;
18867;SDS011;9563;49.240;9.088;2023-05-10T05:43:38;8.35;;;6.25;;
18867;SDS011;9563;49.240;9.088;2023-05-10T05:46:05;10.35;;;6.75;;
18867;SDS011;9563;49.240;9.088;2023-05-10T05:48:32;11.55;;;6.57;;
18867;SDS011;9563;49.240;9.088;2023-05-10T05:50:58;9.93;;;7.22;;
18867;SDS011;9563;49.240;9.088;2023-05-10T05:53:27;7.32;;;6.20;;
18867;SDS011;9563;49.240;9.088;2023-05-10T05:55:54;8.27;;;5.97;;
18867;SDS011;9563;49.240;9.088;2023-05-10T05:58:22;10.30;;;6.40;;
18867;SDS011;9563;49.240;9.088;2023-05-10T06:00:49;10.02;;;6.47;;
18867;SDS011;9563;49.240;9.088;2023-05-10T06:03:16;9.00;;;6.22;;
18867;SDS011;9563;49.240;9.088;2023-05-10T06:05:43;9.55;;;6.10;;
18867;SDS011;9563;49.240;9.088;2023-05-10T06:08:10;7.30;;;6.15;;
18867;SDS011;9563;49.240;9.088;2023-05-10T06:10:39;11.95;;;6.50;;
18867;SDS011;9563;49.240;9.088;2023-05-10T06:13:05;7.38;;;6.20;;
18867;SDS011;9563;49.240;9.088;2023-05-10T06:15:32;8.95;;;5.70;;
18867;SDS011;9563;49.240;9.088;2023-05-10T06:17:59;6.97;;;5.95;;
18867;SDS011;9563;49.240;9.088;2023-05-10T06:20:26;10.05;;;5.30;;
18867;SDS011;9563;49.240;9.088;2023-05-10T06:22:53;8.98;;;5.35;;
18867;SDS011;9563;49.240;9.088;2023-05-10T06:25:20;6.95;;;5.53;;
18867;SDS011;9563;49.240;9.088;2023-05-10T06:27:48;10.07;;;5.70;;
18867;SDS011;9563;49.240;9.088;2023-05-10T06:30:15;7.88;;;5.55;;
18867;SDS011;9563;49.240;9.088;2023-05-10T06:32:42;6.35;;;5.28;;
18867;SDS011;9563;49.240;9.088;2023-05-10T06:35:10;6.20;;;4.60;;
18867;SDS011;9563;49.240;9.088;2023-05-10T06:37:37;6.57;;;3.55;;
18867;SDS011;9563;49.240;9.088;2023-05-10T06:40:05;4.88;;;3.25;;
18867;SDS011;9563;49.240;9.088;2023-05-10T06:42:32;4.63;;;3.60;;
18867;SDS011;9563;49.240;9.088;2023-05-10T06:45:01;6.30;;;3.05;;
18867;SDS011;9563;49.240;9.088;2023-05-10T06:47:28;4.68;;;3.58;;
18867;SDS011;9563;49.240;9.088;2023-05-10T06:49:55;8.23;;;3.85;;
18867;SDS011;9563;49.240;9.088;2023-05-10T06:52:21;5.03;;;3.80;;
18867;SDS011;9563;49.240;9.088;2023-05-10T06:54:49;5.78;;;4.20;;
18867;SDS011;9563;49.240;9.088;2023-05-10T06:57:16;4.88;;;3.75;;
18867;SDS011;9563;49.240;9.088;2023-05-10T06:59:43;4.57;;;3.65;;
18867;SDS011;9563;49.240;9.088;2023-05-10T07:02:11;5.18;;;3.60;;
18867;SDS011;9563;49.240;9.088;2023-05-10T07:04:39;5.22;;;3.42;;
18867;SDS011;9563;49.240;9.088;2023-05-10T07:07:06;5.10;;;3.67;;
18867;SDS011;9563;49.240;9.088;2023-05-10T07:09:33;8.50;;;4.00;;
18867;SDS011;9563;49.240;9.088;2023-05-10T07:12:00;4.35;;;3.15;;
18867;SDS011;9563;49.240;9.088;2023-05-10T07:14:27;6.60;;;3.85;;
18867;SDS011;9563;49.240;9.088;2023-05-10T07:16:54;4.13;;;3.42;;
18867;SDS011;9563;49.240;9.088;2023-05-10T07:19:23;6.97;;;3.58;;
18867;SDS011;9563;49.240;9.088;2023-05-10T07:21:50;5.32;;;3.17;;
18867;SDS011;9563;49.240;9.088;2023-05-10T07:24:18;4.10;;;3.70;;
18867;SDS011;9563;49.240;9.088;2023-05-10T07:26:51;4.80;;;3.53;;
18867;SDS011;9563;49.240;9.088;2023-05-10T07:29:20;5.07;;;3.85;;
18867;SDS011;9563;49.240;9.088;2023-05-10T07:31:47;5.35;;;4.05;;
18867;SDS011;9563;49.240;9.088;2023-05-10T07:34:14;4.80;;;3.90;;
18867;SDS011;9563;49.240;9.088;2023-05-10T07:36:42;3.65;;;3.05;;
18867;SDS011;9563;49.240;9.088;2023-05-10T07:39:09;3.95;;;2.95;;
18867;SDS011;9563;49.240;9.088;2023-05-10T07:41:36;3.85;;;3.20;;
18867;SDS011;9563;49.240;9.088;2023-05-10T07:44:03;4.32;;;3.10;;
18867;SDS011;9563;49.240;9.088;2023-05-10T07:46:31;6.35;;;2.90;;
18867;SDS011;9563;49.240;9.088;2023-05-10T07:48:58;5.40;;;2.63;;
18867;SDS011;9563;49.240;9.088;2023-05-10T07:51:25;4.03;;;3.00;;
18867;SDS011;9563;49.240;9.088;2023-05-10T07:53:54;5.28;;;2.67;;
18867;SDS011;9563;49.240;9.088;2023-05-10T07:56:23;2.58;;;2.10;;
18867;SDS011;9563;49.240;9.088;2023-05-10T07:58:52;3.03;;;2.30;;
18867;SDS011;9563;49.240;9.088;2023-05-10T08:01:19;3.90;;;2.13;;
18867;SDS011;9563;49.240;9.088;2023-05-10T08:03:46;3.42;;;2.25;;
18867;SDS011;9563;49.240;9.088;2023-05-10T08:06:13;2.28;;;2.03;;
18867;SDS011;9563;49.240;9.088;2023-05-10T08:08:40;3.60;;;2.20;;
18867;SDS011;9563;49.240;9.088;2023-05-10T08:11:09;5.22;;;2.15;;
18867;SDS011;9563;49.240;9.088;2023-05-10T08:13:36;2.92;;;1.77;;
18867;SDS011;9563;49.240;9.088;2023-05-10T08:16:03;3.05;;;2.13;;
18867;SDS011;9563;49.240;9.088;2023-05-10T08:18:30;3.13;;;2.03;;
18867;SDS011;9563;49.240;9.088;2023-05-10T08:20:57;2.63;;;2.25;;
18867;SDS011;9563;49.240;9.088;2023-05-10T08:23:24;2.97;;;2.30;;
18867;SDS011;9563;49.240;9.088;2023-05-10T08:25:51;3.72;;;2.00;;
18867;SDS011;9563;49.240;9.088;2023-05-10T08:28:19;5.53;;;2.10;;
18867;SDS011;9563;49.240;9.088;2023-05-10T08:30:46;6.18;;;1.88;;
18867;SDS011;9563;49.240;9.088;2023-05-10T08:33:13;4.63;;;1.80;;
18867;SDS011;9563;49.240;9.088;2023-05-10T08:35:40;2.58;;;1.50;;
18867;SDS011;9563;49.240;9.088;2023-05-10T08:38:07;7.72;;;1.80;;
18867;SDS011;9563;49.240;9.088;2023-05-10T08:40:37;3.58;;;1.52;;
18867;SDS011;9563;49.240;9.088;2023-05-10T08:43:07;3.13;;;1.75;;
18867;SDS011;9563;49.240;9.088;2023-05-10T08:45:38;4.03;;;1.33;;
18867;SDS011;9563;49.240;9.088;2023-05-10T08:48:07;2.35;;;1.55;;
18867;SDS011;9563;49.240;9.088;2023-05-10T08:50:35;2.55;;;1.50;;
18867;SDS011;9563;49.240;9.088;2023-05-10T08:53:04;1.42;;;1.15;;
18867;SDS011;9563;49.240;9.088;2023-05-10T08:55:33;3.80;;;1.40;;
18867;SDS011;9563;49.240;9.088;2023-05-10T08:58:01;2.50;;;1.20;;
18867;SDS011;9563;49.240;9.088;2023-05-10T09:00:29;4.80;;;1.30;;
18867;SDS011;9563;49.240;9.088;2023-05-10T09:02:58;3.60;;;0.98;;
18867;SDS011;9563;49.240;9.088;2023-05-10T09:05:26;2.50;;;1.13;;
18867;SDS011;9563;49.240;9.088;2023-05-10T09:07:53;2.28;;;1.10;;
18867;SDS011;9563;49.240;9.088;2023-05-10T09:10:20;2.28;;;1.00;;
18867;SDS011;9563;49.240;9.088;2023-05-10T09:12:47;1.42;;;0.95;;
18867;SDS011;9563;49.240;9.088;2023-05-10T09:15:15;1.00;;;0.90;;
18867;SDS011;9563;49.240;9.088;2023-05-10T09:17:44;2.55;;;1.00;;
18867;SDS011;9563;49.240;9.088;2023-05-10T09:20:13;1.70;;;1.10;;
18867;SDS011;9563;49.240;9.088;2023-05-10T09:22:43;3.60;;;1.17;;
18867;SDS011;9563;49.240;9.088;2023-05-10T09:25:10;1.50;;;0.90;;
18867;SDS011;9563;49.240;9.088;2023-05-10T09:27:38;2.83;;;1.13;;
18867;SDS011;9563;49.240;9.088;2023-05-10T09:30:06;3.08;;;0.93;;
18867;SDS011;9563;49.240;9.088;2023-05-10T09:32:37;1.30;;;1.20;;
18867;SDS011;9563;49.240;9.088;2023-05-10T09:35:06;1.23;;;0.93;;
18867;SDS011;9563;49.240;9.088;2023-05-10T09:37:35;4.10;;;1.25;;
18867;SDS011;9563;49.240;9.088;2023-05-10T09:40:05;2.90;;;1.02;;
18867;SDS011;9563;49.240;9.088;2023-05-10T09:42:33;2.85;;;1.00;;
18867;SDS011;9563;49.240;9.088;2023-05-10T09:45:02;0.95;;;0.90;;
18867;SDS011;9563;49.240;9.088;2023-05-10T09:47:31;1.63;;;0.80;;
18867;SDS011;9563;49.240;9.088;2023-05-10T09:49:59;2.03;;;1.10;;
18867;SDS011;9563;49.240;9.088;2023-05-10T09:52:29;1.17;;;0.80;;
18867;SDS011;9563;49.240;9.088;2023-05-10T09:54:58;1.85;;;0.90;;
18867;SDS011;9563;49.240;9.088;2023-05-10T09:57:25;2.55;;;1.10;;
18867;SDS011;9563;49.240;9.088;2023-05-10T09:59:52;1.27;;;0.90;;
18867;SDS011;9563;49.240;9.088;2023-05-10T10:02:20;0.80;;;0.80;;
18867;SDS011;9563;49.240;9.088;2023-05-10T10:04:48;1.73;;;0.93;;
18867;SDS011;9563;49.240;9.088;2023-05-10T10:07:17;5.25;;;0.90;;
18867;SDS011;9563;49.240;9.088;2023-05-10T10:09:50;0.80;;;0.80;;
18867;SDS011;9563;49.240;9.088;2023-05-10T10:12:19;2.78;;;1.05;;
18867;SDS011;9563;49.240;9.088;2023-05-10T10:14:46;2.45;;;0.90;;
18867;SDS011;9563;49.240;9.088;2023-05-10T10:17:14;1.00;;;0.90;;
18867;SDS011;9563;49.240;9.088;2023-05-10T10:19:41;4.68;;;0.93;;
18867;SDS011;9563;49.240;9.088;2023-05-10T10:22:09;0.90;;;0.80;;
18867;SDS011;9563;49.240;9.088;2023-05-10T10:24:37;0.80;;;0.80;;
18867;SDS011;9563;49.240;9.088;2023-05-10T10:27:07;1.67;;;0.80;;
18867;SDS011;9563;49.240;9.088;2023-05-10T10:29:44;1.05;;;0.70;;
18867;SDS011;9563;49.240;9.088;2023-05-10T10:32:20;1.10;;;0.88;;
18867;SDS011;9563;49.240;9.088;2023-05-10T10:34:51;0.60;;;0.60;;
18867;SDS011;9563;49.240;9.088;2023-05-10T10:37:20;2.08;;;0.90;;
18867;SDS011;9563;49.240;9.088;2023-05-10T10:39:47;1.98;;;0.77;;
18867;SDS011;9563;49.240;9.088;2023-05-10T10:42:15;1.08;;;0.80;;
18867;SDS011;9563;49.240;9.088;2023-05-10T10:45:13;0.85;;;0.85;;
18867;SDS011;9563;49.240;9.088;2023-05-10T10:47:40;2.38;;;0.90;;
18867;SDS011;9563;49.240;9.088;2023-05-10T10:50:08;2.65;;;0.85;;
18867;SDS011;9563;49.240;9.088;2023-05-10T10:52:38;2.17;;;0.80;;
18867;SDS011;9563;49.240;9.088;2023-05-10T10:55:06;1.88;;;0.80;;
18867;SDS011;9563;49.240;9.088;2023-05-10T10:57:42;6.68;;;1.20;;
18867;SDS011;9563;49.240;9.088;2023-05-10T11:00:28;0.80;;;0.80;;
18867;SDS011;9563;49.240;9.088;2023-05-10T11:02:57;6.35;;;1.00;;
18867;SDS011;9563;49.240;9.088;2023-05-10T11:05:33;2.08;;;0.85;;
18867;SDS011;9563;49.240;9.088;2023-05-10T11:08:11;2.25;;;1.02;;
18867;SDS011;9563;49.240;9.088;2023-05-10T11:10:48;5.60;;;1.08;;
18867;SDS011;9563;49.240;9.088;2023-05-10T11:13:30;2.03;;;1.20;;
18867;SDS011;9563;49.240;9.088;2023-05-10T11:15:59;2.55;;;1.00;;
18867;SDS011;9563;49.240;9.088;2023-05-10T11:18:36;1.70;;;0.85;;
18867;SDS011;9563;49.240;9.088;2023-05-10T11:21:04;1.45;;;0.85;;
18867;SDS011;9563;49.240;9.088;2023-05-10T11:23:31;1.10;;;1.00;;
18867;SDS011;9563;49.240;9.088;2023-05-10T11:25:58;3.08;;;0.80;;
18867;SDS011;9563;49.240;9.088;2023-05-10T11:28:26;1.08;;;0.80;;
18867;SDS011;9563;49.240;9.088;2023-05-10T11:30:53;2.20;;;0.75;;
18867;SDS011;9563;49.240;9.088;2023-05-10T11:33:23;0.82;;;0.75;;
18867;SDS011;9563;49.240;9.088;2023-05-10T11:35:50;2.63;;;0.90;;
18867;SDS011;9563;49.240;9.088;2023-05-10T11:38:17;3.53;;;0.82;;
18867;SDS011;9563;49.240;9.088;2023-05-10T11:40:44;11.27;;;1.08;;
18867;SDS011;9563;49.240;9.088;2023-05-10T11:43:11;4.10;;;0.90;;
18867;SDS011;9563;49.240;9.088;2023-05-10T11:45:39;1.58;;;0.80;;
18867;SDS011;9563;49.240;9.088;2023-05-10T11:48:10;2.53;;;0.60;;
18867;SDS011;9563;49.240;9.088;2023-05-10T11:50:38;6.05;;;1.10;;
18867;SDS011;9563;49.240;9.088;2023-05-10T11:53:05;1.90;;;0.90;;
18867;SDS011;9563;49.240;9.088;2023-05-10T11:55:33;1.77;;;0.80;;
18867;SDS011;9563;49.240;9.088;2023-05-10T11:58:01;2.97;;;0.95;;
18867;SDS011;9563;49.240;9.088;2023-05-10T12:00:29;3.17;;;0.80;;
18867;SDS011;9563;49.240;9.088;2023-05-10T12:02:57;1.88;;;1.20;;
18867;SDS011;9563;49.240;9.088;2023-05-10T12:05:24;3.42;;;1.20;;
18867;SDS011;9563;49.240;9.088;2023-05-10T12:07:54;1.17;;;0.93;;
18867;SDS011;9563;49.240;9.088;2023-05-10T12:10:38;1.50;;;0.90;;
18867;SDS011;9563;49.240;9.088;2023-05-10T12:13:05;4.15;;;1.08;;
18867;SDS011;9563;49.240;9.088;2023-05-10T12:15:36;5.88;;;1.08;;
18867;SDS011;9563;49.240;9.088;2023-05-10T12:18:03;4.53;;;1.00;;
18867;SDS011;9563;49.240;9.088;2023-05-10T12:20:30;1.27;;;0.90;;
18867;SDS011;9563;49.240;9.088;2023-05-10T12:22:59;2.50;;;0.73;;
18867;SDS011;9563;49.240;9.088;2023-05-10T12:25:29;3.40;;;1.20;;
18867;SDS011;9563;49.240;9.088;2023-05-10T12:27:58;1.25;;;0.90;;
18867;SDS011;9563;49.240;9.088;2023-05-10T12:30:27;4.57;;;1.17;;
18867;SDS011;9563;49.240;9.088;2023-05-10T12:32:59;1.77;;;1.20;;
18867;SDS011;9563;49.240;9.088;2023-05-10T12:35:44;1.35;;;0.95;;
18867;SDS011;9563;49.240;9.088;2023-05-10T12:38:27;4.85;;;1.20;;
18867;SDS011;9563;49.240;9.088;2023-05-10T12:40:56;3.05;;;1.25;;
18867;SDS011;9563;49.240;9.088;2023-05-10T12:43:24;4.32;;;1.23;;
18867;SDS011;9563;49.240;9.088;2023-05-10T12:45:51;2.63;;;0.93;;
18867;SDS011;9563;49.240;9.088;2023-05-10T12:48:18;1.73;;;0.80;;
18867;SDS011;9563;49.240;9.088;2023-05-10T12:50:45;6.10;;;1.10;;
18867;SDS011;9563;49.240;9.088;2023-05-10T12:53:13;5.18;;;1.17;;
18867;SDS011;9563;49.240;9.088;2023-05-10T12:55:44;4.82;;;1.02;;
18867;SDS011;9563;49.240;9.088;2023-05-10T12:58:11;2.00;;;0.80;;
18867;SDS011;9563;49.240;9.088;2023-05-10T13:00:38;2.97;;;1.10;;
18867;SDS011;9563;49.240;9.088;2023-05-10T13:03:05;9.93;;;1.75;;
18867;SDS011;9563;49.240;9.088;2023-05-10T13:05:32;2.45;;;1.20;;
18867;SDS011;9563;49.240;9.088;2023-05-10T13:07:59;1.85;;;1.17;;
18867;SDS011;9563;49.240;9.088;2023-05-10T13:10:27;2.53;;;1.13;;
18867;SDS011;9563;49.240;9.088;2023-05-10T13:12:59;2.72;;;1.13;;
18867;SDS011;9563;49.240;9.088;2023-05-10T13:15:26;3.60;;;1.30;;
18867;SDS011;9563;49.240;9.088;2023-05-10T13:17:53;4.25;;;1.15;;
18867;SDS011;9563;49.240;9.088;2023-05-10T13:20:20;2.67;;;1.15;;
18867;SDS011;9563;49.240;9.088;2023-05-10T13:22:47;3.65;;;1.40;;
18867;SDS011;9563;49.240;9.088;2023-05-10T13:25:14;3.83;;;1.20;;
18867;SDS011;9563;49.240;9.088;2023-05-10T13:27:41;5.13;;;1.33;;
18867;SDS011;9563;49.240;9.088;2023-05-10T13:30:10;5.18;;;1.23;;
18867;SDS011;9563;49.240;9.088;2023-05-10T13:32:38;5.60;;;1.10;;
18867;SDS011;9563;49.240;9.088;2023-05-10T13:35:05;3.17;;;1.00;;
18867;SDS011;9563;49.240;9.088;2023-05-10T13:37:33;4.93;;;1.40;;
18867;SDS011;9563;49.240;9.088;2023-05-10T13:40:02;5.53;;;1.08;;
18867;SDS011;9563;49.240;9.088;2023-05-10T13:42:30;6.95;;;1.08;;
18867;SDS011;9563;49.240;9.088;2023-05-10T13:44:58;4.85;;;1.10;;
18867;SDS011;9563;49.240;9.088;2023-05-10T13:47:28;1.92;;;1.00;;
18867;SDS011;9563;49.240;9.088;2023-05-10T13:49:59;1.83;;;1.20;;
18867;SDS011;9563;49.240;9.088;2023-05-10T13:52:26;7.28;;;1.30;;
18867;SDS011;9563;49.240;9.088;2023-05-10T13:54:53;2.58;;;1.40;;
18867;SDS011;9563;49.240;9.088;2023-05-10T13:57:25;3.33;;;1.20;;
18867;SDS011;9563;49.240;9.088;2023-05-10T13:59:56;3.22;;;1.02;;
18867;SDS011;9563;49.240;9.088;2023-05-10T14:02:24;5.72;;;1.05;;
18867;SDS011;9563;49.240;9.088;2023-05-10T14:04:56;3.30;;;1.13;;
18867;SDS011;9563;49.240;9.088;2023-05-10T14:07:23;2.47;;;1.10;;
18867;SDS011;9563;49.240;9.088;2023-05-10T14:09:51;3.72;;;1.08;;
18867;SDS011;9563;49.240;9.088;2023-05-10T14:12:17;5.03;;;1.10;;
18867;SDS011;9563;49.240;9.088;2023-05-10T14:14:45;2.88;;;1.15;;
18867;SDS011;9563;49.240;9.088;2023-05-10T14:17:12;1.80;;;0.98;;
18867;SDS011;9563;49.240;9.088;2023-05-10T14:19:39;3.40;;;0.88;;
18867;SDS011;9563;49.240;9.088;2023-05-10T14:22:07;4.40;;;1.15;;
18867;SDS011;9563;49.240;9.088;2023-05-10T14:24:37;2.42;;;1.00;;
18867;SDS011;9563;49.240;9.088;2023-05-10T14:27:04;3.95;;;1.02;;
18867;SDS011;9563;49.240;9.088;2023-05-10T14:29:32;1.63;;;0.80;;
18867;SDS011;9563;49.240;9.088;2023-05-10T14:31:59;3.63;;;1.05;;
18867;SDS011;9563;49.240;9.088;2023-05-10T14:34:26;1.92;;;0.80;;
18867;SDS011;9563;49.240;9.088;2023-05-10T14:36:53;2.17;;;1.08;;
18867;SDS011;9563;49.240;9.088;2023-05-10T14:39:22;2.60;;;1.00;;
18867;SDS011;9563;49.240;9.088;2023-05-10T14:41:49;2.38;;;0.90;;
18867;SDS011;9563;49.240;9.088;2023-05-10T14:44:17;0.90;;;0.82;;
18867;SDS011;9563;49.240;9.088;2023-05-10T14:46:44;9.52;;;1.10;;
18867;SDS011;9563;49.240;9.088;2023-05-10T14:49:12;5.88;;;1.23;;
18867;SDS011;9563;49.240;9.088;2023-05-10T14:51:39;1.88;;;1.00;;
18867;SDS011;9563;49.240;9.088;2023-05-10T14:54:06;12.90;;;1.20;;
18867;SDS011;9563;49.240;9.088;2023-05-10T14:56:36;4.80;;;1.25;;
18867;SDS011;9563;49.240;9.088;2023-05-10T14:59:14;1.60;;;1.10;;
18867;SDS011;9563;49.240;9.088;2023-05-10T15:01:41;3.38;;;0.98;;
18867;SDS011;9563;49.240;9.088;2023-05-10T15:04:09;3.88;;;0.80;;
18867;SDS011;9563;49.240;9.088;2023-05-10T15:06:37;2.40;;;1.30;;
18867;SDS011;9563;49.240;9.088;2023-05-10T15:09:05;2.72;;;0.90;;
18867;SDS011;9563;49.240;9.088;2023-05-10T15:11:36;4.05;;;1.15;;
18867;SDS011;9563;49.240;9.088;2023-05-10T15:14:03;4.05;;;0.95;;
18867;SDS011;9563;49.240;9.088;2023-05-10T15:16:31;4.03;;;1.10;;
18867;SDS011;9563;49.240;9.088;2023-05-10T15:18:58;1.88;;;1.20;;
18867;SDS011;9563;49.240;9.088;2023-05-10T15:21:25;2.05;;;1.10;;
18867;SDS011;9563;49.240;9.088;2023-05-10T15:23:52;2.50;;;1.17;;
18867;SDS011;9563;49.240;9.088;2023-05-10T15:26:19;4.50;;;1.00;;
18867;SDS011;9563;49.240;9.088;2023-05-10T15:28:48;5.47;;;1.40;;
18867;SDS011;9563;49.240;9.088;2023-05-10T15:31:15;1.50;;;0.80;;
18867;SDS011;9563;49.240;9.088;2023-05-10T15:33:42;1.83;;;1.00;;
18867;SDS011;9563;49.240;9.088;2023-05-10T15:36:09;4.20;;;1.20;;
18867;SDS011;9563;49.240;9.088;2023-05-10T15:38:36;2.15;;;1.00;;
18867;SDS011;9563;49.240;9.088;2023-05-10T15:41:04;3.28;;;0.80;;
18867;SDS011;9563;49.240;9.088;2023-05-10T15:43:31;4.55;;;0.77;;
18867;SDS011;9563;49.240;9.088;2023-05-10T15:45:59;0.95;;;0.65;;
18867;SDS011;9563;49.240;9.088;2023-05-10T15:48:26;1.27;;;0.82;;
18867;SDS011;9563;49.240;9.088;2023-05-10T15:50:56;4.18;;;0.70;;
18867;SDS011;9563;49.240;9.088;2023-05-10T15:53:23;1.75;;;0.70;;
18867;SDS011;9563;49.240;9.088;2023-05-10T15:55:52;3.35;;;1.00;;
18867;SDS011;9563;49.240;9.088;2023-05-10T15:58:20;2.78;;;0.70;;
18867;SDS011;9563;49.240;9.088;2023-05-10T16:00:48;2.72;;;0.85;;
18867;SDS011;9563;49.240;9.088;2023-05-10T16:03:16;3.03;;;1.05;;
18867;SDS011;9563;49.240;9.088;2023-05-10T16:05:43;1.33;;;0.60;;
18867;SDS011;9563;49.240;9.088;2023-05-10T16:08:10;4.45;;;0.80;;
18867;SDS011;9563;49.240;9.088;2023-05-10T16:10:38;3.13;;;0.80;;
18867;SDS011;9563;49.240;9.088;2023-05-10T16:13:05;5.18;;;0.65;;
18867;SDS011;9563;49.240;9.088;2023-05-10T16:15:33;1.25;;;0.70;;
18867;SDS011;9563;49.240;9.088;2023-05-10T16:18:00;0.98;;;0.70;;
18867;SDS011;9563;49.240;9.088;2023-05-10T16:20:28;3.45;;;0.73;;
18867;SDS011;9563;49.240;9.088;2023-05-10T16:22:55;2.60;;;0.70;;
18867;SDS011;9563;49.240;9.088;2023-05-10T16:25:26;1.38;;;0.43;;
18867;SDS011;9563;49.240;9.088;2023-05-10T16:27:53;1.27;;;0.43;;
18867;SDS011;9563;49.240;9.088;2023-05-10T16:30:23;2.65;;;0.60;;
18867;SDS011;9563;49.240;9.088;2023-05-10T16:32:53;1.92;;;0.63;;
18867;SDS011;9563;49.240;9.088;2023-05-10T16:35:21;4.00;;;0.60;;
18867;SDS011;9563;49.240;9.088;2023-05-10T16:37:50;1.38;;;0.47;;
18867;SDS011;9563;49.240;9.088;2023-05-10T16:40:17;1.17;;;0.50;;
18867;SDS011;9563;49.240;9.088;2023-05-10T16:42:44;2.42;;;0.70;;
18867;SDS011;9563;49.240;9.088;2023-05-10T16:45:12;1.40;;;0.57;;
18867;SDS011;9563;49.240;9.088;2023-05-10T16:47:40;1.92;;;0.60;;
18867;SDS011;9563;49.240;9.088;2023-05-10T16:50:10;3.42;;;0.63;;
18867;SDS011;9563;49.240;9.088;2023-05-10T16:52:38;4.93;;;0.85;;
18867;SDS011;9563;49.240;9.088;2023-05-10T16:55:08;0.60;;;0.60;;
18867;SDS011;9563;49.240;9.088;2023-05-10T16:57:35;0.70;;;0.60;;
18867;SDS011;9563;49.240;9.088;2023-05-10T17:00:06;0.85;;;0.45;;
18867;SDS011;9563;49.240;9.088;2023-05-10T17:02:35;1.75;;;0.63;;
18867;SDS011;9563;49.240;9.088;2023-05-10T17:05:05;1.30;;;0.55;;
18867;SDS011;9563;49.240;9.088;2023-05-10T17:07:33;3.58;;;0.70;;
18867;SDS011;9563;49.240;9.088;2023-05-10T17:10:00;2.40;;;0.60;;
18867;SDS011;9563;49.240;9.088;2023-05-10T17:12:29;1.30;;;0.63;;
18867;SDS011;9563;49.240;9.088;2023-05-10T17:14:59;1.95;;;0.70;;
18867;SDS011;9563;49.240;9.088;2023-05-10T17:17:29;0.63;;;0.55;;
18867;SDS011;9563;49.240;9.088;2023-05-10T17:19:57;0.60;;;0.60;;
18867;SDS011;9563;49.240;9.088;2023-05-10T17:22:24;3.97;;;0.60;;
18867;SDS011;9563;49.240;9.088;2023-05-10T17:24:51;1.50;;;0.70;;
18867;SDS011;9563;49.240;9.088;2023-05-10T17:27:20;2.50;;;1.10;;
18867;SDS011;9563;49.240;9.088;2023-05-10T17:29:48;4.13;;;0.77;;
18867;SDS011;9563;49.240;9.088;2023-05-10T17:32:20;2.90;;;0.70;;
18867;SDS011;9563;49.240;9.088;2023-05-10T17:34:48;2.50;;;0.90;;
18867;SDS011;9563;49.240;9.088;2023-05-10T17:37:16;3.00;;;0.90;;
18867;SDS011;9563;49.240;9.088;2023-05-10T17:39:43;1.05;;;0.70;;
18867;SDS011;9563;49.240;9.088;2023-05-10T17:42:11;2.08;;;0.80;;
18867;SDS011;9563;49.240;9.088;2023-05-10T17:44:43;2.67;;;0.70;;
18867;SDS011;9563;49.240;9.088;2023-05-10T17:47:11;2.72;;;0.70;;
18867;SDS011;9563;49.240;9.088;2023-05-10T17:49:39;0.95;;;0.80;;
18867;SDS011;9563;49.240;9.088;2023-05-10T17:52:06;0.82;;;0.82;;
18867;SDS011;9563;49.240;9.088;2023-05-10T17:54:33;2.15;;;0.75;;
18867;SDS011;9563;49.240;9.088;2023-05-10T17:57:01;1.25;;;0.60;;
18867;SDS011;9563;49.240;9.088;2023-05-10T17:59:28;2.83;;;0.70;;
18867;SDS011;9563;49.240;9.088;2023-05-10T18:01:57;2.05;;;0.80;;
18867;SDS011;9563;49.240;9.088;2023-05-10T18:04:28;0.75;;;0.60;;
18867;SDS011;9563;49.240;9.088;2023-05-10T18:06:56;1.80;;;0.60;;
18867;SDS011;9563;49.240;9.088;2023-05-10T18:09:29;2.97;;;0.60;;
18867;SDS011;9563;49.240;9.088;2023-05-10T18:11:58;2.10;;;0.60;;
18867;SDS011;9563;49.240;9.088;2023-05-10T18:14:25;0.52;;;0.52;;
18867;SDS011;9563;49.240;9.088;2023-05-10T18:16:54;1.98;;;0.73;;
18867;SDS011;9563;49.240;9.088;2023-05-10T18:19:23;1.90;;;0.55;;
18867;SDS011;9563;49.240;9.088;2023-05-10T18:21:52;3.38;;;1.13;;
18867;SDS011;9563;49.240;9.088;2023-05-10T18:24:20;0.93;;;0.70;;
18867;SDS011;9563;49.240;9.088;2023-05-10T18:26:47;1.20;;;0.70;;
18867;SDS011;9563;49.240;9.088;2023-05-10T18:29:15;8.93;;;0.90;;
18867;SDS011;9563;49.240;9.088;2023-05-10T18:31:42;0.63;;;0.60;;
18867;SDS011;9563;49.240;9.088;2023-05-10T18:34:10;4.15;;;0.68;;
18867;SDS011;9563;49.240;9.088;2023-05-10T18:36:37;4.00;;;0.70;;
18867;SDS011;9563;49.240;9.088;2023-05-10T18:39:09;4.63;;;0.80;;
18867;SDS011;9563;49.240;9.088;2023-05-10T18:41:37;1.23;;;0.70;;
18867;SDS011;9563;49.240;9.088;2023-05-10T18:44:04;1.67;;;0.70;;
18867;SDS011;9563;49.240;9.088;2023-05-10T18:46:32;1.60;;;0.82;;
18867;SDS011;9563;49.240;9.088;2023-05-10T18:48:59;1.92;;;0.95;;
18867;SDS011;9563;49.240;9.088;2023-05-10T18:51:27;0.85;;;0.60;;
18867;SDS011;9563;49.240;9.088;2023-05-10T18:53:55;1.77;;;1.00;;
18867;SDS011;9563;49.240;9.088;2023-05-10T18:56:24;1.30;;;0.65;;
18867;SDS011;9563;49.240;9.088;2023-05-10T18:58:52;3.22;;;0.73;;
18867;SDS011;9563;49.240;9.088;2023-05-10T19:01:19;0.80;;;0.60;;
18867;SDS011;9563;49.240;9.088;2023-05-10T19:03:46;1.73;;;0.70;;
18867;SDS011;9563;49.240;9.088;2023-05-10T19:06:14;2.55;;;0.55;;
18867;SDS011;9563;49.240;9.088;2023-05-10T19:08:41;1.13;;;0.57;;
18867;SDS011;9563;49.240;9.088;2023-05-10T19:11:08;1.40;;;0.52;;
18867;SDS011;9563;49.240;9.088;2023-05-10T19:13:37;2.20;;;0.73;;
18867;SDS011;9563;49.240;9.088;2023-05-10T19:16:04;4.55;;;0.82;;
18867;SDS011;9563;49.240;9.088;2023-05-10T19:18:35;1.80;;;0.63;;
18867;SDS011;9563;49.240;9.088;2023-05-10T19:21:03;1.23;;;0.70;;
18867;SDS011;9563;49.240;9.088;2023-05-10T19:23:31;4.47;;;0.90;;
18867;SDS011;9563;49.240;9.088;2023-05-10T19:25:58;2.85;;;0.82;;
18867;SDS011;9563;49.240;9.088;2023-05-10T19:28:26;2.60;;;0.80;;
18867;SDS011;9563;49.240;9.088;2023-05-10T19:30:55;3.13;;;0.80;;
18867;SDS011;9563;49.240;9.088;2023-05-10T19:33:22;2.67;;;0.80;;
18867;SDS011;9563;49.240;9.088;2023-05-10T19:35:49;1.98;;;0.70;;
18867;SDS011;9563;49.240;9.088;2023-05-10T19:38:18;3.67;;;0.60;;
18867;SDS011;9563;49.240;9.088;2023-05-10T19:40:46;1.80;;;1.10;;
18867;SDS011;9563;49.240;9.088;2023-05-10T19:43:14;1.85;;;0.60;;
18867;SDS011;9563;49.240;9.088;2023-05-10T19:45:41;1.00;;;0.65;;
18867;SDS011;9563;49.240;9.088;2023-05-10T19:48:09;3.17;;;0.80;;
18867;SDS011;9563;49.240;9.088;2023-05-10T19:50:36;0.65;;;0.65;;
18867;SDS011;9563;49.240;9.088;2023-05-10T19:53:03;1.52;;;0.60;;
18867;SDS011;9563;49.240;9.088;2023-05-10T19:55:30;1.88;;;0.52;;
18867;SDS011;9563;49.240;9.088;2023-05-10T19:57:59;1.50;;;0.50;;
18867;SDS011;9563;49.240;9.088;2023-05-10T20:00:26;1.05;;;0.50;;
18867;SDS011;9563;49.240;9.088;2023-05-10T20:02:53;0.63;;;0.50;;
18867;SDS011;9563;49.240;9.088;2023-05-10T20:05:22;0.70;;;0.40;;
18867;SDS011;9563;49.240;9.088;2023-05-10T20:07:49;1.02;;;0.73;;